Marlin Amber — V7HD7 — position and weather

sailwx.info

Track history (hours):
 
Tides and Currents Weather Stations Pressure Air Temp Water Temp Dewpoint Dewpoint Depression Visibility Wind Speed Wind Dir Waves Ship Positions

Marlin Amber

Last reported at 2017-Aug-27 16:03 UTC. Time now 2017-Sep-24 19:31 UTC.
Position N 35°57' W 006°06'.
Warning: this ship's position is 28 days out of date.

Length 183 m; draft 11 m.

Type: Tanker. MMSI: 538005802.

Date/timePositionNaut miles runAvg speedWind from/ knotsBaromVisibWave heightAir tempDewpointWater temp
2017-Aug-27 16:03N 35°57' W 006°06'112.4
2017-Aug-27 15:59N 35°57' W 006°05'612.5
2017-Aug-27 15:30N 35°57' W 005°57'1113.1
2017-Aug-27 14:39N 35°57' W 005°44'611.9
2017-Aug-27 14:08N 35°57' W 005°36'110.7
2017-Aug-27 14:00N 35°58' W 005°34'510.1
2017-Aug-27 13:30N 35°59' W 005°28'5 9.8
2017-Aug-27 13:00N 36°01' W 005°23'610.9
2017-Aug-27 12:30N 36°02' W 005°16'12212.3
2017-Aug-27 02:31N 36°12' W 002°45'014.0
2017-Aug-27 02:30N 36°12' W 002°45'712.8
2017-Aug-27 01:56N 36°13' W 002°36'612.5
2017-Aug-27 01:28N 36°13' W 002°29'612.1
2017-Aug-27 01:00N 36°13' W 002°22'611.8
2017-Aug-27 00:30N 36°14' W 002°14'611.7
2017-Aug-27 00:00N 36°14' W 002°07'611.3
2017-Aug-26 23:30N 36°16' W 002°00'611.3
2017-Aug-26 23:00N 36°18' W 001°54'611.2
2017-Aug-26 22:30N 36°19' W 001°47'711.5
2017-Aug-26 21:53N 36°22' W 001°39'611.5
2017-Aug-26 21:23N 36°24' W 001°32'511.8
2017-Aug-26 20:57N 36°26' W 001°26'512.1
2017-Aug-26 20:30N 36°28' W 001°20'812.0
2017-Aug-26 19:52N 36°32' W 001°12'512.5
2017-Aug-26 19:30N 36°33' W 001°07'612.4
2017-Aug-26 19:00N 36°36' W 000°60'612.4
2017-Aug-26 18:30N 36°38' W 000°52'712.5
2017-Aug-26 17:59N 36°41' W 000°45'612.7
2017-Aug-26 17:30N 36°43' W 000°38'612.5
2017-Aug-26 17:00N 36°45' W 000°31'612.5
2017-Aug-26 16:30N 36°48' W 000°23'612.6
2017-Aug-26 16:00N 36°50' W 000°16'612.6
2017-Aug-26 15:30N 36°53' W 000°09'612.4
2017-Aug-26 15:00N 36°55' W 000°02'1212.3
2017-Aug-26 14:00N 36°60' E 000°13'812.9
2017-Aug-26 13:25N 37°03' E 000°21'512.7
2017-Aug-26 13:00N 37°05' E 000°27'612.5
2017-Aug-26 12:29N 37°07' E 000°35'612.2
2017-Aug-26 12:00N 37°09' E 000°42'612.1
2017-Aug-26 11:30N 37°12' E 000°49'711.9
2017-Aug-26 10:58N 37°14' E 000°56'612.5
2017-Aug-26 10:30N 37°17' E 001°03'612.7
2017-Aug-26 10:00N 37°19' E 001°10'612.7
2017-Aug-26 09:30N 37°21' E 001°18'612.6
2017-Aug-26 09:00N 37°22' E 001°25'712.9
2017-Aug-26 08:26N 37°23' E 001°35'712.9
2017-Aug-26 07:53N 37°23' E 001°43'512.8
2017-Aug-26 07:30N 37°23' E 001°50'712.9
2017-Aug-26 07:00N 37°23' E 001°58'612.6
2017-Aug-26 06:30N 37°24' E 002°06'612.3
2017-Aug-26 06:00N 37°24' E 002°13'612.3
2017-Aug-26 05:30N 37°24' E 002°21'612.3
2017-Aug-26 05:00N 37°24' E 002°29'612.2
2017-Aug-26 04:29N 37°25' E 002°37'712.3
2017-Aug-26 03:57N 37°25' E 002°45'512.1
2017-Aug-26 03:30N 37°25' E 002°52'612.2
2017-Aug-26 03:00N 37°26' E 002°60'612.4
2017-Aug-26 02:30N 37°26' E 003°07'612.4
2017-Aug-26 02:00N 37°26' E 003°15'612.3
2017-Aug-26 01:30N 37°26' E 003°23'612.3
2017-Aug-26 01:00N 37°27' E 003°31'612.5
2017-Aug-26 00:30N 37°27' E 003°38'612.4
2017-Aug-26 00:00N 37°28' E 003°46'612.3
2017-Aug-25 23:30N 37°28' E 003°54'612.3
2017-Aug-25 23:00N 37°28' E 004°02'612.3
2017-Aug-25 22:30N 37°28' E 004°09'612.4
2017-Aug-25 22:00N 37°29' E 004°17'612.6
2017-Aug-25 21:30N 37°29' E 004°25'612.6
2017-Aug-25 21:00N 37°29' E 004°33'612.4
2017-Aug-25 20:30N 37°29' E 004°41'612.3
2017-Aug-25 20:00N 37°30' E 004°49'612.2
2017-Aug-25 19:30N 37°30' E 004°56'612.2
2017-Aug-25 19:00N 37°30' E 005°04'612.5
2017-Aug-25 18:30N 37°30' E 005°12'612.4
2017-Aug-25 18:00N 37°31' E 005°20'612.3
2017-Aug-25 17:30N 37°31' E 005°27'612.4
2017-Aug-25 17:00N 37°31' E 005°35'612.3
2017-Aug-25 16:30N 37°32' E 005°43'612.4
2017-Aug-25 16:00N 37°32' E 005°51'612.5
2017-Aug-25 15:30N 37°33' E 005°59'612.4
2017-Aug-25 15:00N 37°33' E 006°06'1312.6
2017-Aug-25 14:00N 37°33' E 006°22'612.7
2017-Aug-25 13:30N 37°33' E 006°30'612.7
2017-Aug-25 13:00N 37°34' E 006°38'612.8
2017-Aug-25 12:30N 37°34' E 006°46'612.7
2017-Aug-25 12:00N 37°35' E 006°54'712.9
2017-Aug-25 11:26N 37°35' E 007°04'613.1
2017-Aug-25 11:00N 37°35' E 007°11'613.0
2017-Aug-25 10:30N 37°36' E 007°19'913.0
2017-Aug-25 09:51N 37°36' E 007°30'513.0
2017-Aug-25 09:30N 37°36' E 007°35'1013.0
2017-Aug-25 08:45N 37°36' E 007°48'412.7
2017-Aug-25 08:28N 37°36' E 007°52'612.5
2017-Aug-25 08:00N 37°36' E 007°59'612.4
2017-Aug-25 07:30N 37°36' E 008°07'612.5
2017-Aug-25 07:00N 37°36' E 008°15'712.4
2017-Aug-25 06:27N 37°37' E 008°24'612.4
2017-Aug-25 06:00N 37°37' E 008°31'612.6
2017-Aug-25 05:30N 37°37' E 008°39'612.7
2017-Aug-25 05:00N 37°37' E 008°47'612.5
2017-Aug-25 04:30N 37°38' E 008°55'612.1
2017-Aug-25 04:00N 37°38' E 009°02'16112.2
2017-Aug-24 14:49N 36°60' E 012°19'512.7
2017-Aug-24 14:26N 36°58' E 012°25'612.6
2017-Aug-24 13:57N 36°56' E 012°32'612.5
2017-Aug-24 13:30N 36°53' E 012°38'612.3
2017-Aug-24 13:00N 36°50' E 012°45'612.4
2017-Aug-24 12:30N 36°48' E 012°52'712.4
2017-Aug-24 11:56N 36°45' E 012°60'512.3
2017-Aug-24 11:30N 36°43' E 013°06'612.4
2017-Aug-24 11:00N 36°40' E 013°13'612.4
2017-Aug-24 10:30N 36°37' E 013°20'612.5
2017-Aug-24 10:00N 36°35' E 013°27'612.5
2017-Aug-24 09:30N 36°32' E 013°34'612.6
2017-Aug-24 09:00N 36°30' E 013°41'612.5
2017-Aug-24 08:30N 36°27' E 013°48'612.4
2017-Aug-24 08:00N 36°25' E 013°55'612.5
2017-Aug-24 07:30N 36°22' E 014°02'612.6
2017-Aug-24 07:00N 36°19' E 014°09'612.5
2017-Aug-24 06:30N 36°18' E 014°17'612.5
2017-Aug-24 06:00N 36°17' E 014°25'612.5
2017-Aug-24 05:30N 36°16' E 014°32'612.4
2017-Aug-24 05:00N 36°15' E 014°40'612.3
2017-Aug-24 04:30N 36°14' E 014°47'48611.8
2017-Aug-22 11:09N 37°12' E 024°50'212.7
2017-Aug-22 11:00N 37°13' E 024°52'713.3
2017-Aug-22 10:30N 37°14' E 024°60'713.2
2017-Aug-22 10:00N 37°15' E 025°08'713.1
2017-Aug-22 09:30N 37°16' E 025°16'713.2
2017-Aug-22 09:00N 37°18' E 025°24'713.3
2017-Aug-22 08:30N 37°20' E 025°32'913.1
2017-Aug-22 07:50N 37°24' E 025°42'413.1
2017-Aug-22 07:30N 37°26' E 025°47'510.3
2017-Aug-22 07:00N 37°31' E 025°47'713.1
2017-Aug-22 06:29N 37°37' E 025°43'612.9
2017-Aug-22 06:00N 37°43' E 025°40'612.6
2017-Aug-22 05:30N 37°48' E 025°37'  
2017-Aug-18 02:06N 44°26' E 037°23'213.3
2017-Aug-18 01:58N 44°27' E 037°25'613.4
2017-Aug-18 01:30N 44°29' E 037°33'713.3
2017-Aug-18 01:00N 44°32' E 037°42'612.8
2017-Aug-18 00:30N 44°37' E 037°48'4 8.1
2017-Aug-18 00:00N 44°41' E 037°50'4 7.2
2017-Aug-17 23:30N 44°44' E 037°47'0 0.5
2017-Aug-17 22:58N 44°44' E 037°47'0 0.0
2017-Aug-17 22:28N 44°44' E 037°47'0 0.0
2017-Aug-17 21:58N 44°44' E 037°47'0 0.0
2017-Aug-17 21:28N 44°44' E 037°47'0 0.0
2017-Aug-17 20:31N 44°44' E 037°47'0 0.0
2017-Aug-17 20:25N 44°44' E 037°47'0 0.0
2017-Aug-17 19:25N 44°44' E 037°47'0 0.0
2017-Aug-17 18:58N 44°44' E 037°47'0 0.0
2017-Aug-17 18:28N 44°44' E 037°47'0 0.0
2017-Aug-17 17:58N 44°44' E 037°47'0 0.0
2017-Aug-17 17:28N 44°44' E 037°47'0 0.0
2017-Aug-17 16:58N 44°44' E 037°47'0 0.0
2017-Aug-17 16:28N 44°44' E 037°47'  
Track history (hours):
 
Tides and Currents Weather Stations Pressure Air Temp Water Temp Dewpoint Dewpoint Depression Visibility Wind Speed Wind Dir Waves Ship Positions

Marlin Amber

Last reported at 2017-Aug-27 16:03 UTC. Time now 2017-Sep-24 19:31 UTC.
Position N 35°57' W 006°06'.
Warning: this ship's position is 28 days out of date.

Length 183 m; draft 11 m.

Type: Tanker. MMSI: 538005802.

Date/timePositionNaut miles runAvg speedWind from/ knotsBaromVisibWave heightAir tempDewpointWater temp
2017-Aug-27 16:03N 35°57' W 006°06'112.4
2017-Aug-27 15:59N 35°57' W 006°05'612.5
2017-Aug-27 15:30N 35°57' W 005°57'1113.1
2017-Aug-27 14:39N 35°57' W 005°44'611.9
2017-Aug-27 14:08N 35°57' W 005°36'110.7
2017-Aug-27 14:00N 35°58' W 005°34'510.1
2017-Aug-27 13:30N 35°59' W 005°28'5 9.8
2017-Aug-27 13:00N 36°01' W 005°23'610.9
2017-Aug-27 12:30N 36°02' W 005°16'12212.3
2017-Aug-27 02:31N 36°12' W 002°45'014.0
2017-Aug-27 02:30N 36°12' W 002°45'712.8
2017-Aug-27 01:56N 36°13' W 002°36'612.5
2017-Aug-27 01:28N 36°13' W 002°29'612.1
2017-Aug-27 01:00N 36°13' W 002°22'611.8
2017-Aug-27 00:30N 36°14' W 002°14'611.7
2017-Aug-27 00:00N 36°14' W 002°07'611.3
2017-Aug-26 23:30N 36°16' W 002°00'611.3
2017-Aug-26 23:00N 36°18' W 001°54'611.2
2017-Aug-26 22:30N 36°19' W 001°47'711.5
2017-Aug-26 21:53N 36°22' W 001°39'611.5
2017-Aug-26 21:23N 36°24' W 001°32'511.8
2017-Aug-26 20:57N 36°26' W 001°26'512.1
2017-Aug-26 20:30N 36°28' W 001°20'812.0
2017-Aug-26 19:52N 36°32' W 001°12'512.5
2017-Aug-26 19:30N 36°33' W 001°07'612.4
2017-Aug-26 19:00N 36°36' W 000°60'612.4
2017-Aug-26 18:30N 36°38' W 000°52'712.5
2017-Aug-26 17:59N 36°41' W 000°45'612.7
2017-Aug-26 17:30N 36°43' W 000°38'612.5
2017-Aug-26 17:00N 36°45' W 000°31'612.5
2017-Aug-26 16:30N 36°48' W 000°23'612.6
2017-Aug-26 16:00N 36°50' W 000°16'612.6
2017-Aug-26 15:30N 36°53' W 000°09'612.4
2017-Aug-26 15:00N 36°55' W 000°02'1212.3
2017-Aug-26 14:00N 36°60' E 000°13'812.9
2017-Aug-26 13:25N 37°03' E 000°21'512.7
2017-Aug-26 13:00N 37°05' E 000°27'612.5
2017-Aug-26 12:29N 37°07' E 000°35'612.2
2017-Aug-26 12:00N 37°09' E 000°42'612.1
2017-Aug-26 11:30N 37°12' E 000°49'711.9
2017-Aug-26 10:58N 37°14' E 000°56'612.5
2017-Aug-26 10:30N 37°17' E 001°03'612.7
2017-Aug-26 10:00N 37°19' E 001°10'612.7
2017-Aug-26 09:30N 37°21' E 001°18'612.6
2017-Aug-26 09:00N 37°22' E 001°25'712.9
2017-Aug-26 08:26N 37°23' E 001°35'712.9
2017-Aug-26 07:53N 37°23' E 001°43'512.8
2017-Aug-26 07:30N 37°23' E 001°50'712.9
2017-Aug-26 07:00N 37°23' E 001°58'612.6
2017-Aug-26 06:30N 37°24' E 002°06'612.3
2017-Aug-26 06:00N 37°24' E 002°13'612.3
2017-Aug-26 05:30N 37°24' E 002°21'612.3
2017-Aug-26 05:00N 37°24' E 002°29'612.2
2017-Aug-26 04:29N 37°25' E 002°37'712.3
2017-Aug-26 03:57N 37°25' E 002°45'512.1
2017-Aug-26 03:30N 37°25' E 002°52'612.2
2017-Aug-26 03:00N 37°26' E 002°60'612.4
2017-Aug-26 02:30N 37°26' E 003°07'612.4
2017-Aug-26 02:00N 37°26' E 003°15'612.3
2017-Aug-26 01:30N 37°26' E 003°23'612.3
2017-Aug-26 01:00N 37°27' E 003°31'612.5
2017-Aug-26 00:30N 37°27' E 003°38'612.4
2017-Aug-26 00:00N 37°28' E 003°46'612.3
2017-Aug-25 23:30N 37°28' E 003°54'612.3
2017-Aug-25 23:00N 37°28' E 004°02'612.3
2017-Aug-25 22:30N 37°28' E 004°09'612.4
2017-Aug-25 22:00N 37°29' E 004°17'612.6
2017-Aug-25 21:30N 37°29' E 004°25'612.6
2017-Aug-25 21:00N 37°29' E 004°33'612.4
2017-Aug-25 20:30N 37°29' E 004°41'612.3
2017-Aug-25 20:00N 37°30' E 004°49'612.2
2017-Aug-25 19:30N 37°30' E 004°56'612.2
2017-Aug-25 19:00N 37°30' E 005°04'612.5
2017-Aug-25 18:30N 37°30' E 005°12'612.4
2017-Aug-25 18:00N 37°31' E 005°20'612.3
2017-Aug-25 17:30N 37°31' E 005°27'612.4
2017-Aug-25 17:00N 37°31' E 005°35'612.3
2017-Aug-25 16:30N 37°32' E 005°43'612.4
2017-Aug-25 16:00N 37°32' E 005°51'612.5
2017-Aug-25 15:30N 37°33' E 005°59'612.4
2017-Aug-25 15:00N 37°33' E 006°06'1312.6
2017-Aug-25 14:00N 37°33' E 006°22'612.7
2017-Aug-25 13:30N 37°33' E 006°30'612.7
2017-Aug-25 13:00N 37°34' E 006°38'612.8
2017-Aug-25 12:30N 37°34' E 006°46'612.7
2017-Aug-25 12:00N 37°35' E 006°54'712.9
2017-Aug-25 11:26N 37°35' E 007°04'613.1
2017-Aug-25 11:00N 37°35' E 007°11'613.0
2017-Aug-25 10:30N 37°36' E 007°19'913.0
2017-Aug-25 09:51N 37°36' E 007°30'513.0
2017-Aug-25 09:30N 37°36' E 007°35'1013.0
2017-Aug-25 08:45N 37°36' E 007°48'412.7
2017-Aug-25 08:28N 37°36' E 007°52'612.5
2017-Aug-25 08:00N 37°36' E 007°59'612.4
2017-Aug-25 07:30N 37°36' E 008°07'612.5
2017-Aug-25 07:00N 37°36' E 008°15'712.4
2017-Aug-25 06:27N 37°37' E 008°24'612.4
2017-Aug-25 06:00N 37°37' E 008°31'612.6
2017-Aug-25 05:30N 37°37' E 008°39'612.7
2017-Aug-25 05:00N 37°37' E 008°47'612.5
2017-Aug-25 04:30N 37°38' E 008°55'612.1
2017-Aug-25 04:00N 37°38' E 009°02'16112.2
2017-Aug-24 14:49N 36°60' E 012°19'512.7
2017-Aug-24 14:26N 36°58' E 012°25'612.6
2017-Aug-24 13:57N 36°56' E 012°32'612.5
2017-Aug-24 13:30N 36°53' E 012°38'612.3
2017-Aug-24 13:00N 36°50' E 012°45'612.4
2017-Aug-24 12:30N 36°48' E 012°52'712.4
2017-Aug-24 11:56N 36°45' E 012°60'512.3
2017-Aug-24 11:30N 36°43' E 013°06'612.4
2017-Aug-24 11:00N 36°40' E 013°13'612.4
2017-Aug-24 10:30N 36°37' E 013°20'612.5
2017-Aug-24 10:00N 36°35' E 013°27'612.5
2017-Aug-24 09:30N 36°32' E 013°34'612.6
2017-Aug-24 09:00N 36°30' E 013°41'612.5
2017-Aug-24 08:30N 36°27' E 013°48'612.4
2017-Aug-24 08:00N 36°25' E 013°55'612.5
2017-Aug-24 07:30N 36°22' E 014°02'612.6
2017-Aug-24 07:00N 36°19' E 014°09'612.5
2017-Aug-24 06:30N 36°18' E 014°17'612.5
2017-Aug-24 06:00N 36°17' E 014°25'612.5
2017-Aug-24 05:30N 36°16' E 014°32'612.4
2017-Aug-24 05:00N 36°15' E 014°40'612.3
2017-Aug-24 04:30N 36°14' E 014°47'48611.8
2017-Aug-22 11:09N 37°12' E 024°50'212.7
2017-Aug-22 11:00N 37°13' E 024°52'713.3
2017-Aug-22 10:30N 37°14' E 024°60'713.2
2017-Aug-22 10:00N 37°15' E 025°08'713.1
2017-Aug-22 09:30N 37°16' E 025°16'713.2
2017-Aug-22 09:00N 37°18' E 025°24'713.3
2017-Aug-22 08:30N 37°20' E 025°32'913.1
2017-Aug-22 07:50N 37°24' E 025°42'413.1
2017-Aug-22 07:30N 37°26' E 025°47'510.3
2017-Aug-22 07:00N 37°31' E 025°47'713.1
2017-Aug-22 06:29N 37°37' E 025°43'612.9
2017-Aug-22 06:00N 37°43' E 025°40'612.6
2017-Aug-22 05:30N 37°48' E 025°37'  
2017-Aug-18 02:06N 44°26' E 037°23'213.3
2017-Aug-18 01:58N 44°27' E 037°25'613.4
2017-Aug-18 01:30N 44°29' E 037°33'713.3
2017-Aug-18 01:00N 44°32' E 037°42'612.8
2017-Aug-18 00:30N 44°37' E 037°48'4 8.1
2017-Aug-18 00:00N 44°41' E 037°50'4 7.2
2017-Aug-17 23:30N 44°44' E 037°47'0 0.5
2017-Aug-17 22:58N 44°44' E 037°47'0 0.0
2017-Aug-17 22:28N 44°44' E 037°47'0 0.0
2017-Aug-17 21:58N 44°44' E 037°47'0 0.0
2017-Aug-17 21:28N 44°44' E 037°47'0 0.0
2017-Aug-17 20:31N 44°44' E 037°47'0 0.0
2017-Aug-17 20:25N 44°44' E 037°47'0 0.0
2017-Aug-17 19:25N 44°44' E 037°47'0 0.0
2017-Aug-17 18:58N 44°44' E 037°47'0 0.0
2017-Aug-17 18:28N 44°44' E 037°47'0 0.0
2017-Aug-17 17:58N 44°44' E 037°47'0 0.0
2017-Aug-17 17:28N 44°44' E 037°47'0 0.0
2017-Aug-17 16:58N 44°44' E 037°47'0 0.0
2017-Aug-17 16:28N 44°44' E 037°47'  

Dump ship's entire track history